sensor_id;sensor_type;location;lat;lon;timestamp;P1;durP1;ratioP1;P2;durP2;ratioP2
73104;SDS011;61296;50.526;30.792;2023-04-15T00:00:54;11.48;;;6.03;;
73104;SDS011;61296;50.526;30.792;2023-04-15T00:16:24;7.13;;;5.32;;
73104;SDS011;61296;50.526;30.792;2023-04-15T00:31:43;9.38;;;5.30;;
73104;SDS011;61296;50.526;30.792;2023-04-15T00:47:03;10.40;;;6.30;;
73104;SDS011;61296;50.526;30.792;2023-04-15T01:02:24;11.55;;;6.43;;
73104;SDS011;61296;50.526;30.792;2023-04-15T01:17:44;11.75;;;5.95;;
73104;SDS011;61296;50.526;30.792;2023-04-15T01:33:04;10.00;;;6.28;;
73104;SDS011;61296;50.526;30.792;2023-04-15T01:48:23;11.68;;;6.90;;
73104;SDS011;61296;50.526;30.792;2023-04-15T02:03:42;14.90;;;6.35;;
73104;SDS011;61296;50.526;30.792;2023-04-15T02:19:02;12.25;;;7.47;;
73104;SDS011;61296;50.526;30.792;2023-04-15T02:34:22;13.63;;;7.35;;
73104;SDS011;61296;50.526;30.792;2023-04-15T02:49:41;12.85;;;7.82;;
73104;SDS011;61296;50.526;30.792;2023-04-15T03:05:04;13.07;;;8.23;;
73104;SDS011;61296;50.526;30.792;2023-04-15T03:20:25;14.00;;;8.13;;
73104;SDS011;61296;50.526;30.792;2023-04-15T03:35:45;18.65;;;8.48;;
73104;SDS011;61296;50.526;30.792;2023-04-15T03:51:05;16.27;;;9.48;;
73104;SDS011;61296;50.526;30.792;2023-04-15T04:06:24;18.42;;;9.32;;
73104;SDS011;61296;50.526;30.792;2023-04-15T04:21:44;15.10;;;8.95;;
73104;SDS011;61296;50.526;30.792;2023-04-15T04:37:04;17.80;;;9.27;;
73104;SDS011;61296;50.526;30.792;2023-04-15T04:52:23;13.07;;;8.07;;
73104;SDS011;61296;50.526;30.792;2023-04-15T05:07:43;15.65;;;7.03;;
73104;SDS011;61296;50.526;30.792;2023-04-15T05:23:02;14.50;;;7.20;;
73104;SDS011;61296;50.526;30.792;2023-04-15T05:38:22;12.38;;;7.30;;
73104;SDS011;61296;50.526;30.792;2023-04-15T05:53:41;13.77;;;7.90;;
73104;SDS011;61296;50.526;30.792;2023-04-15T06:09:02;14.73;;;7.57;;
73104;SDS011;61296;50.526;30.792;2023-04-15T06:24:22;13.90;;;7.55;;
73104;SDS011;61296;50.526;30.792;2023-04-15T06:39:42;13.05;;;7.30;;
73104;SDS011;61296;50.526;30.792;2023-04-15T06:55:02;12.90;;;6.63;;
73104;SDS011;61296;50.526;30.792;2023-04-15T07:10:23;15.68;;;8.18;;
73104;SDS011;61296;50.526;30.792;2023-04-15T07:25:43;14.75;;;7.63;;
73104;SDS011;61296;50.526;30.792;2023-04-15T07:41:03;13.40;;;7.35;;
73104;SDS011;61296;50.526;30.792;2023-04-15T07:56:23;13.90;;;7.10;;
73104;SDS011;61296;50.526;30.792;2023-04-15T08:11:44;11.23;;;6.00;;
73104;SDS011;61296;50.526;30.792;2023-04-15T08:27:04;11.10;;;6.05;;
73104;SDS011;61296;50.526;30.792;2023-04-15T08:42:30;8.65;;;5.38;;
73104;SDS011;61296;50.526;30.792;2023-04-15T08:57:52;13.77;;;6.20;;
73104;SDS011;61296;50.526;30.792;2023-04-15T09:13:12;8.88;;;5.10;;
73104;SDS011;61296;50.526;30.792;2023-04-15T09:28:31;10.98;;;5.72;;
73104;SDS011;61296;50.526;30.792;2023-04-15T09:43:51;9.18;;;5.65;;
73104;SDS011;61296;50.526;30.792;2023-04-15T09:59:10;7.47;;;4.63;;
73104;SDS011;61296;50.526;30.792;2023-04-15T10:14:33;10.95;;;5.07;;
73104;SDS011;61296;50.526;30.792;2023-04-15T10:29:53;11.45;;;5.78;;
73104;SDS011;61296;50.526;30.792;2023-04-15T10:45:16;10.55;;;5.75;;
73104;SDS011;61296;50.526;30.792;2023-04-15T11:00:37;10.80;;;5.80;;
73104;SDS011;61296;50.526;30.792;2023-04-15T11:15:57;11.65;;;6.60;;
73104;SDS011;61296;50.526;30.792;2023-04-15T11:31:18;12.93;;;5.97;;
73104;SDS011;61296;50.526;30.792;2023-04-15T11:46:38;11.45;;;5.90;;
73104;SDS011;61296;50.526;30.792;2023-04-15T12:01:57;11.30;;;5.82;;
73104;SDS011;61296;50.526;30.792;2023-04-15T12:17:17;10.40;;;5.80;;
73104;SDS011;61296;50.526;30.792;2023-04-15T12:32:36;11.93;;;6.60;;
73104;SDS011;61296;50.526;30.792;2023-04-15T12:48:00;9.18;;;5.88;;
73104;SDS011;61296;50.526;30.792;2023-04-15T13:03:19;11.25;;;5.53;;
73104;SDS011;61296;50.526;30.792;2023-04-15T13:18:39;13.25;;;6.22;;
73104;SDS011;61296;50.526;30.792;2023-04-15T13:34:00;12.10;;;6.60;;
73104;SDS011;61296;50.526;30.792;2023-04-15T13:49:19;12.60;;;7.10;;
73104;SDS011;61296;50.526;30.792;2023-04-15T14:04:38;11.48;;;6.88;;
73104;SDS011;61296;50.526;30.792;2023-04-15T14:19:57;12.07;;;5.88;;
73104;SDS011;61296;50.526;30.792;2023-04-15T14:35:17;10.95;;;6.55;;
73104;SDS011;61296;50.526;30.792;2023-04-15T15:07:59;12.63;;;7.95;;
73104;SDS011;61296;50.526;30.792;2023-04-15T15:23:23;11.98;;;7.53;;
73104;SDS011;61296;50.526;30.792;2023-04-15T15:38:43;10.00;;;6.50;;
73104;SDS011;61296;50.526;30.792;2023-04-15T15:54:02;9.73;;;5.97;;
73104;SDS011;61296;50.526;30.792;2023-04-15T16:09:21;12.48;;;6.30;;
73104;SDS011;61296;50.526;30.792;2023-04-15T16:24:41;10.27;;;6.07;;
73104;SDS011;61296;50.526;30.792;2023-04-15T16:40:01;14.98;;;8.13;;
73104;SDS011;61296;50.526;30.792;2023-04-15T16:55:21;14.90;;;9.13;;
73104;SDS011;61296;50.526;30.792;2023-04-15T17:10:40;27.02;;;13.60;;
73104;SDS011;61296;50.526;30.792;2023-04-15T17:25:59;22.45;;;11.52;;
73104;SDS011;61296;50.526;30.792;2023-04-15T17:41:18;25.73;;;12.15;;
73104;SDS011;61296;50.526;30.792;2023-04-15T17:56:39;24.67;;;12.50;;
73104;SDS011;61296;50.526;30.792;2023-04-15T18:12:06;24.35;;;13.38;;
73104;SDS011;61296;50.526;30.792;2023-04-15T18:27:34;27.50;;;13.30;;
73104;SDS011;61296;50.526;30.792;2023-04-15T18:43:00;30.20;;;14.02;;
73104;SDS011;61296;50.526;30.792;2023-04-15T18:58:19;39.90;;;17.20;;
73104;SDS011;61296;50.526;30.792;2023-04-15T19:13:38;37.17;;;17.00;;
73104;SDS011;61296;50.526;30.792;2023-04-15T19:28:57;33.20;;;14.27;;
73104;SDS011;61296;50.526;30.792;2023-04-15T19:44:16;30.92;;;14.98;;
73104;SDS011;61296;50.526;30.792;2023-04-15T19:59:35;30.00;;;14.48;;
73104;SDS011;61296;50.526;30.792;2023-04-15T20:14:55;30.30;;;14.63;;
73104;SDS011;61296;50.526;30.792;2023-04-15T20:30:14;35.83;;;15.40;;
73104;SDS011;61296;50.526;30.792;2023-04-15T20:45:34;39.50;;;17.02;;
73104;SDS011;61296;50.526;30.792;2023-04-15T21:00:53;43.42;;;17.27;;
73104;SDS011;61296;50.526;30.792;2023-04-15T21:16:12;38.38;;;16.60;;
73104;SDS011;61296;50.526;30.792;2023-04-15T21:31:32;50.33;;;19.70;;
73104;SDS011;61296;50.526;30.792;2023-04-15T21:46:51;49.60;;;19.95;;
73104;SDS011;61296;50.526;30.792;2023-04-15T22:02:10;45.70;;;20.20;;
73104;SDS011;61296;50.526;30.792;2023-04-15T22:17:30;40.67;;;16.52;;
73104;SDS011;61296;50.526;30.792;2023-04-15T22:32:49;47.15;;;19.35;;
73104;SDS011;61296;50.526;30.792;2023-04-15T22:48:08;55.13;;;22.08;;
73104;SDS011;61296;50.526;30.792;2023-04-15T23:03:27;55.15;;;23.48;;
73104;SDS011;61296;50.526;30.792;2023-04-15T23:18:46;60.80;;;25.17;;
73104;SDS011;61296;50.526;30.792;2023-04-15T23:34:05;59.13;;;24.40;;
73104;SDS011;61296;50.526;30.792;2023-04-15T23:49:24;72.80;;;28.02;;
